Time;durP1;ratioP1;P1;durP2;ratioP2;P2;SDS_P1;SDS_P2;PMS_P1;PMS_P2;Temp;Humidity;BMP_temperature;BMP_pressure;BME280_temperature;BME280_humidity;BME280_pressure;Samples;Min_cycle;Max_cycle;Signal;HPM_P1;HPM_P2
2022/12/19 00:01:29;;;;;;;94.10;33.60;;;0.60;99.90;;;;;;5195057;27;20377;-66
2022/12/19 00:03:57;;;;;;;95.28;33.00;;;0.70;99.90;;;;;;5161146;27;20118;-66
2022/12/19 00:06:24;;;;;;;98.80;33.85;;;0.70;99.90;;;;;;5130050;27;20038;-66
2022/12/19 00:08:51;;;;;;;89.00;31.88;;;0.70;99.90;;;;;;5125548;27;20051;-66
2022/12/19 00:11:18;;;;;;;96.93;34.30;;;0.70;99.90;;;;;;5080702;28;20072;-66
2022/12/19 00:13:44;;;;;;;89.53;32.28;;;0.70;99.90;;;;;;5023916;28;20046;-65
2022/12/19 00:16:19;;;;;;;93.50;32.97;;;0.80;99.90;;;;;;4969808;28;20055;-66
2022/12/19 00:18:45;;;;;;;91.22;33.33;;;0.70;99.90;;;;;;4899072;29;20048;-66
2022/12/19 00:21:16;;;;;;;96.93;34.35;;;0.70;99.90;;;;;;4867856;29;20400;-66
2022/12/19 00:27:19;;;;;;;91.80;32.13;;;0.80;99.90;;;;;;5193722;27;20589;-67
2022/12/19 00:29:45;;;;;;;91.38;31.67;;;0.80;99.90;;;;;;5156739;27;20051;-65
2022/12/19 00:32:11;;;;;;;92.15;33.88;;;0.80;99.90;;;;;;5156550;27;20051;-66
2022/12/19 00:34:36;;;;;;;93.40;33.67;;;0.80;99.90;;;;;;5137340;27;20121;-66
2022/12/19 00:37:02;;;;;;;91.85;33.13;;;0.90;99.90;;;;;;5105440;27;20048;-66
2022/12/19 00:39:27;;;;;;;95.82;32.33;;;0.80;99.90;;;;;;5049234;28;20493;-66
2022/12/19 00:41:53;;;;;;;85.05;31.42;;;0.90;99.90;;;;;;5013914;28;20100;-66
2022/12/19 00:44:18;;;;;;;87.97;30.85;;;0.90;99.90;;;;;;4895323;29;20039;-66
2022/12/19 00:46:44;;;;;;;88.25;31.35;;;0.90;99.90;;;;;;4845540;29;20562;-66
2022/12/19 00:49:10;;;;;;;88.25;31.77;;;1.00;99.90;;;;;;4772118;29;20403;-66
2022/12/19 00:54:13;;;;;;;82.70;29.77;;;1.00;99.90;;;;;;5199000;27;20155;-66
2022/12/19 00:56:38;;;;;;;87.95;31.17;;;1.00;99.90;;;;;;5125884;27;20499;-66
2022/12/19 00:59:05;;;;;;;90.55;30.33;;;1.00;99.90;;;;;;5107519;27;20051;-66
2022/12/19 01:01:33;;;;;;;85.57;32.08;;;1.00;99.90;;;;;;5110184;27;20043;-66
2022/12/19 01:04:00;;;;;;;92.15;32.17;;;1.10;99.90;;;;;;5023251;28;20053;-66
2022/12/19 01:06:26;;;;;;;89.25;31.90;;;1.10;99.90;;;;;;4941439;28;20048;-66
2022/12/19 01:08:52;;;;;;;93.03;31.05;;;1.00;99.90;;;;;;4899013;29;20056;-65
2022/12/19 01:12:44;;;;;;;89.50;32.30;;;1.10;99.90;;;;;;4826625;29;20050;-66
2022/12/19 01:14:03;;;;;;;96.85;31.45;;;1.10;99.90;;;;;;4738557;30;20071;-66
2022/12/19 01:16:29;;;;;;;90.97;32.17;;;1.10;99.90;;;;;;4647938;30;20043;-66
2022/12/19 01:19:06;;;;;;;92.85;32.80;;;1.10;99.90;;;;;;5179325;27;20157;-67
2022/12/19 01:21:35;;;;;;;89.90;32.00;;;1.10;99.90;;;;;;5121141;27;20059;-66
2022/12/19 01:24:02;;;;;;;90.25;31.20;;;1.20;99.90;;;;;;5074882;28;20036;-66
2022/12/19 01:26:28;;;;;;;86.88;32.85;;;1.20;99.90;;;;;;5047774;28;20044;-65
2022/12/19 01:28:54;;;;;;;86.35;31.15;;;1.10;99.90;;;;;;5052864;28;20054;-65
2022/12/19 01:31:20;;;;;;;95.10;32.97;;;1.10;99.90;;;;;;4994906;28;20050;-65
2022/12/19 01:33:46;;;;;;;85.80;31.85;;;1.20;99.90;;;;;;4930057;29;20158;-66
2022/12/19 01:36:11;;;;;;;88.68;31.63;;;1.20;99.90;;;;;;4894049;29;20050;-66
2022/12/19 01:38:37;;;;;;;87.63;31.40;;;1.20;99.90;;;;;;4822827;29;20045;-66
2022/12/19 01:41:02;;;;;;;87.60;31.02;;;1.20;99.90;;;;;;4791971;29;20031;-66
2022/12/19 01:46:13;;;;;;;88.93;32.65;;;1.20;99.90;;;;;;5179583;27;20605;-66
2022/12/19 01:48:42;;;;;;;87.53;29.95;;;1.30;99.90;;;;;;5099978;27;20396;-66
2022/12/19 01:51:16;;;;;;;93.93;32.30;;;1.30;99.90;;;;;;5133626;27;20047;-67
2022/12/19 01:53:49;;;;;;;84.18;30.95;;;1.20;99.90;;;;;;5114495;27;20058;-66
2022/12/19 01:56:19;;;;;;;85.65;30.10;;;1.30;99.90;;;;;;5076285;28;20742;-65
2022/12/19 01:58:47;;;;;;;99.53;32.38;;;1.30;99.90;;;;;;5012322;28;20396;-67
2022/12/19 02:01:15;;;;;;;96.18;33.33;;;1.30;99.90;;;;;;5012367;28;20480;-66
2022/12/19 02:03:40;;;;;;;87.70;30.70;;;1.30;99.90;;;;;;4957181;28;20050;-65
2022/12/19 02:06:07;;;;;;;86.43;30.25;;;1.30;99.90;;;;;;4919665;28;20043;-66
2022/12/19 02:08:35;;;;;;;86.82;31.95;;;1.30;99.90;;;;;;4846766;29;20039;-65
2022/12/19 02:11:12;;;;;;;95.25;32.60;;;1.30;99.90;;;;;;5180135;27;20585;-67
2022/12/19 02:13:38;;;;;;;107.82;35.22;;;1.30;99.90;;;;;;5120249;27;20043;-66
2022/12/19 02:16:15;;;;;;;107.03;34.53;;;1.40;99.90;;;;;;5094257;28;20045;-66
2022/12/19 02:18:55;;;;;;;92.38;32.35;;;1.30;99.90;;;;;;5081964;28;20059;-64
2022/12/19 02:21:32;;;;;;;113.75;34.85;;;1.30;99.90;;;;;;5023592;28;20397;-66
2022/12/19 02:24:04;;;;;;;94.75;33.45;;;1.40;99.90;;;;;;4950596;28;20039;-66
2022/12/19 02:27:00;;;;;;;96.10;32.53;;;1.40;99.90;;;;;;4874849;29;20088;-66
2022/12/19 02:29:37;;;;;;;105.13;34.35;;;1.30;99.90;;;;;;4780709;29;20055;-66
2022/12/19 02:32:25;;;;;;;97.97;31.58;;;1.40;99.90;;;;;;4680378;30;20064;-65
2022/12/19 02:35:14;;;;;;;107.05;34.90;;;1.40;99.90;;;;;;5175725;27;20133;-66
2022/12/19 02:38:00;;;;;;;98.10;32.80;;;1.30;99.90;;;;;;5134504;27;20042;-66
2022/12/19 02:40:32;;;;;;;84.72;31.52;;;1.40;99.90;;;;;;5096327;28;20036;-65
2022/12/19 02:43:00;;;;;;;100.55;33.38;;;1.40;99.90;;;;;;5029376;28;20338;-65
2022/12/19 02:45:34;;;;;;;95.10;31.92;;;1.40;99.90;;;;;;5000404;28;20050;-66
2022/12/19 02:48:02;;;;;;;94.70;32.13;;;1.40;99.90;;;;;;4995903;28;20468;-65
2022/12/19 02:50:43;;;;;;;99.32;33.38;;;1.40;99.90;;;;;;4942874;28;20058;-66
2022/12/19 02:53:10;;;;;;;94.18;31.50;;;1.40;99.90;;;;;;4820173;29;20207;-66
2022/12/19 02:56:13;;;;;;;96.68;32.33;;;1.40;99.90;;;;;;4744471;29;20144;-66
2022/12/19 03:01:14;;;;;;;110.32;35.28;;;1.50;99.90;;;;;;5186326;27;20124;-65
2022/12/19 03:03:54;;;;;;;92.03;33.67;;;1.50;99.90;;;;;;5151625;27;20844;-66
2022/12/19 03:06:31;;;;;;;102.15;34.30;;;1.60;99.90;;;;;;5103191;27;20039;-65
2022/12/19 03:09:04;;;;;;;107.75;35.17;;;1.60;99.90;;;;;;5034522;28;20723;-65
2022/12/19 03:11:34;;;;;;;119.50;37.28;;;1.60;99.90;;;;;;5023961;28;20507;-66
2022/12/19 03:14:06;;;;;;;120.78;36.22;;;1.60;99.90;;;;;;4980405;28;20401;-67
2022/12/19 03:16:36;;;;;;;110.32;35.00;;;1.60;99.90;;;;;;4862783;29;20066;-66
2022/12/19 03:19:03;;;;;;;108.32;35.55;;;1.60;99.90;;;;;;4830589;29;20135;-65
2022/12/19 03:21:51;;;;;;;113.88;35.58;;;1.60;99.90;;;;;;4846008;29;20065;-65
2022/12/19 03:24:18;;;;;;;123.57;36.47;;;1.70;99.90;;;;;;4754688;29;20584;-66
2022/12/19 03:27:06;;;;;;;117.55;37.10;;;1.60;99.90;;;;;;5169781;27;20141;-67
2022/12/19 03:29:44;;;;;;;112.30;35.92;;;1.70;99.90;;;;;;5120875;27;20151;-65
2022/12/19 03:32:12;;;;;;;101.03;33.50;;;1.70;99.90;;;;;;5068157;28;20091;-66
2022/12/19 03:34:51;;;;;;;115.28;35.83;;;1.70;99.90;;;;;;5069892;28;20120;-66
2022/12/19 03:37:21;;;;;;;124.20;37.60;;;1.70;99.90;;;;;;5054304;28;20468;-66
2022/12/19 03:39:52;;;;;;;116.70;37.10;;;1.80;99.90;;;;;;4987720;28;20141;-67
2022/12/19 03:45:07;;;;;;;118.07;37.50;;;1.80;99.90;;;;;;4790771;29;20112;-66
2022/12/19 03:47:50;;;;;;;140.60;41.13;;;1.80;99.90;;;;;;4723886;30;20542;-66
2022/12/19 03:50:36;;;;;;;123.55;39.25;;;1.80;99.90;;;;;;5188802;27;20474;-66
2022/12/19 03:53:29;;;;;;;121.47;39.13;;;1.80;99.90;;;;;;5126699;27;20172;-66
2022/12/19 03:56:05;;;;;;;125.45;39.88;;;1.90;99.90;;;;;;5106758;27;20443;-66
2022/12/19 03:58:34;;;;;;;120.20;37.83;;;1.90;99.90;;;;;;5041113;28;20044;-66
2022/12/19 04:01:02;;;;;;;139.32;41.95;;;2.00;99.90;;;;;;5034756;28;20104;-65
2022/12/19 04:03:30;;;;;;;125.47;38.17;;;2.00;99.90;;;;;;4882442;29;20124;-66
2022/12/19 04:05:57;;;;;;;119.15;38.85;;;2.00;99.90;;;;;;4796316;29;20450;-66
2022/12/19 04:08:23;;;;;;;122.30;39.08;;;2.00;99.90;;;;;;4773338;29;20115;-66
2022/12/19 04:10:56;;;;;;;131.30;38.80;;;2.00;99.90;;;;;;4773846;29;20417;-66
2022/12/19 04:13:39;;;;;;;115.90;37.47;;;2.00;99.90;;;;;;4721010;29;20052;-66
2022/12/19 04:16:47;;;;;;;119.30;38.78;;;2.00;99.90;;;;;;5169239;27;20141;-67
2022/12/19 04:19:58;;;;;;;140.10;39.70;;;2.00;99.90;;;;;;5112687;27;20062;-68
2022/12/19 04:22:35;;;;;;;115.53;36.40;;;2.00;99.90;;;;;;5100107;27;20054;-69
2022/12/19 04:25:03;;;;;;;121.30;38.78;;;2.00;99.90;;;;;;5142949;27;20039;-67
2022/12/19 04:27:32;;;;;;;118.25;37.63;;;2.10;99.90;;;;;;5073128;28;20443;-67
2022/12/19 04:30:01;;;;;;;133.75;38.30;;;2.10;99.90;;;;;;5001357;28;20055;-68
2022/12/19 04:32:28;;;;;;;109.65;36.92;;;2.10;99.90;;;;;;4957351;28;20486;-67
2022/12/19 04:34:54;;;;;;;116.82;36.75;;;2.20;99.90;;;;;;4935482;28;20090;-69
2022/12/19 04:37:32;;;;;;;107.82;36.25;;;2.20;99.90;;;;;;5184335;27;20128;-67
2022/12/19 04:39:58;;;;;;;114.93;37.05;;;2.30;99.90;;;;;;5140227;27;20035;-67
2022/12/19 04:42:24;;;;;;;121.95;37.60;;;2.20;99.90;;;;;;5136552;27;20439;-67
2022/12/19 04:44:49;;;;;;;119.20;38.15;;;2.20;99.90;;;;;;5120677;27;20046;-67
2022/12/19 04:47:15;;;;;;;124.38;38.00;;;2.30;99.90;;;;;;5077932;28;20059;-68
2022/12/19 04:49:41;;;;;;;109.55;35.58;;;2.20;99.90;;;;;;5055558;28;20055;-67
2022/12/19 04:52:06;;;;;;;120.78;37.47;;;2.20;99.90;;;;;;5049979;28;20033;-69
2022/12/19 04:54:32;;;;;;;120.90;38.60;;;2.30;99.90;;;;;;5006660;28;20142;-68
2022/12/19 04:56:58;;;;;;;140.13;39.60;;;2.30;99.90;;;;;;4918748;28;20059;-68
2022/12/19 04:59:23;;;;;;;130.02;39.65;;;2.30;99.90;;;;;;4829998;29;20172;-68
2022/12/19 05:01:56;;;;;;;118.07;36.92;;;2.40;99.90;;;;;;5175017;27;20138;-67
2022/12/19 05:04:22;;;;;;;115.30;37.13;;;2.40;99.90;;;;;;5151369;27;20043;-67
2022/12/19 05:06:47;;;;;;;120.32;37.75;;;2.40;99.90;;;;;;5130328;27;20042;-69
2022/12/19 05:09:13;;;;;;;125.85;39.03;;;2.40;99.90;;;;;;5134786;27;20062;-67
2022/12/19 05:11:39;;;;;;;112.70;35.60;;;2.40;99.90;;;;;;5122880;27;20076;-68
2022/12/19 05:14:04;;;;;;;125.22;37.38;;;2.50;99.90;;;;;;5090844;27;20040;-68
2022/12/19 05:16:30;;;;;;;123.75;38.13;;;2.50;99.90;;;;;;5047322;28;20111;-67
2022/12/19 05:18:55;;;;;;;117.35;36.22;;;2.40;99.90;;;;;;4926631;28;20048;-68
2022/12/19 05:21:21;;;;;;;116.93;36.03;;;2.50;99.90;;;;;;4814730;29;20269;-67
2022/12/19 05:23:48;;;;;;;101.35;33.65;;;2.50;99.90;;;;;;4807182;29;20488;-67
2022/12/19 05:28:52;;;;;;;118.00;35.83;;;2.50;99.90;;;;;;5167885;27;20149;-67
2022/12/19 05:31:19;;;;;;;99.40;32.95;;;2.60;99.90;;;;;;5126329;27;20046;-68
2022/12/19 05:33:46;;;;;;;126.60;36.08;;;2.60;99.90;;;;;;5093934;27;20078;-67
2022/12/19 05:36:13;;;;;;;132.27;37.22;;;2.60;99.90;;;;;;5093518;28;20036;-67
2022/12/19 05:38:39;;;;;;;119.03;35.78;;;2.70;99.90;;;;;;5079249;28;20573;-66
2022/12/19 05:41:07;;;;;;;106.13;36.17;;;2.70;99.90;;;;;;4993657;28;20117;-68
2022/12/19 05:43:32;;;;;;;95.68;32.72;;;2.70;99.90;;;;;;4918947;28;20083;-67
2022/12/19 05:45:58;;;;;;;97.35;33.35;;;2.70;99.90;;;;;;4843369;29;20145;-68
2022/12/19 05:48:23;;;;;;;97.03;30.73;;;2.70;99.90;;;;;;4801244;29;20056;-68
2022/12/19 05:50:49;;;;;;;91.40;30.98;;;2.80;99.90;;;;;;4701086;30;20389;-67
2022/12/19 05:56:06;;;;;;;89.18;30.15;;;2.80;99.90;;;;;;5169647;27;20141;-67
2022/12/19 05:58:32;;;;;;;87.45;29.73;;;2.80;99.90;;;;;;5124828;27;20506;-67
2022/12/19 06:01:24;;;;;;;92.35;31.15;;;2.90;99.90;;;;;;5132288;27;20039;-67
2022/12/19 06:03:50;;;;;;;92.95;30.95;;;2.90;99.90;;;;;;5104979;27;20465;-68
2022/12/19 06:06:23;;;;;;;83.93;29.10;;;2.90;99.90;;;;;;5049439;28;20077;-68
2022/12/19 06:08:54;;;;;;;104.25;32.45;;;2.90;99.90;;;;;;5040416;28;20481;-68
2022/12/19 06:11:19;;;;;;;89.30;30.50;;;2.80;99.90;;;;;;4974994;28;20118;-68
2022/12/19 06:13:45;;;;;;;93.13;29.88;;;3.00;99.90;;;;;;4919782;28;20283;-66
2022/12/19 06:16:13;;;;;;;86.35;29.10;;;2.90;99.90;;;;;;4869282;28;20073;-67
2022/12/19 06:18:40;;;;;;;85.63;29.73;;;3.00;99.90;;;;;;4710484;29;20554;-67
2022/12/19 06:21:20;;;;;;;87.53;29.63;;;3.10;99.90;;;;;;5168506;27;20129;-67
2022/12/19 06:23:46;;;;;;;94.60;30.35;;;3.10;99.90;;;;;;5093050;27;20051;-67
2022/12/19 06:26:14;;;;;;;89.20;29.10;;;3.10;99.90;;;;;;5062041;28;20051;-68
2022/12/19 06:28:40;;;;;;;97.28;30.90;;;3.10;99.90;;;;;;5037939;28;20111;-66
2022/12/19 06:31:06;;;;;;;80.88;26.73;;;3.00;99.90;;;;;;5040932;28;20523;-67
2022/12/19 06:33:33;;;;;;;86.32;29.25;;;3.00;99.90;;;;;;5012135;28;20486;-67
2022/12/19 06:36:03;;;;;;;87.53;27.10;;;3.10;99.90;;;;;;5012620;28;20041;-69
2022/12/19 06:38:29;;;;;;;84.25;27.00;;;3.10;99.90;;;;;;4995081;28;20049;-69
2022/12/19 06:43:39;;;;;;;75.65;26.45;;;3.20;99.90;;;;;;4861155;29;20050;-67
2022/12/19 06:46:16;;;;;;;70.18;25.10;;;3.30;99.90;;;;;;5185775;27;20132;-68
2022/12/19 06:48:41;;;;;;;68.20;24.50;;;3.30;99.90;;;;;;5129765;27;20043;-68
2022/12/19 06:51:07;;;;;;;74.45;25.77;;;3.30;99.90;;;;;;5105321;27;20051;-68
2022/12/19 06:53:32;;;;;;;69.45;24.52;;;3.30;99.90;;;;;;5110840;27;20047;-66
2022/12/19 06:55:58;;;;;;;69.95;24.63;;;3.40;99.90;;;;;;5056975;28;20045;-68
2022/12/19 06:58:24;;;;;;;82.50;26.23;;;3.50;99.90;;;;;;4994691;28;20046;-68
2022/12/19 07:00:51;;;;;;;64.43;23.45;;;3.50;99.90;;;;;;4951084;28;20052;-66
2022/12/19 07:03:23;;;;;;;67.30;23.95;;;3.50;99.90;;;;;;4853565;29;20093;-68
2022/12/19 07:05:49;;;;;;;70.97;24.43;;;3.60;99.90;;;;;;4780440;29;20062;-68
2022/12/19 07:08:14;;;;;;;64.53;23.50;;;3.60;99.90;;;;;;4760348;29;20294;-67
2022/12/19 07:13:17;;;;;;;67.05;23.10;;;3.70;99.90;;;;;;5191717;27;20590;-67
2022/12/19 07:15:43;;;;;;;81.82;25.20;;;3.70;99.90;;;;;;5138243;27;20051;-66
2022/12/19 07:18:09;;;;;;;64.05;23.38;;;3.70;99.90;;;;;;5107111;27;20040;-68
2022/12/19 07:20:37;;;;;;;61.08;22.33;;;3.80;99.90;;;;;;5129352;27;20078;-66
2022/12/19 07:23:05;;;;;;;63.83;22.90;;;3.80;99.90;;;;;;5093940;28;20059;-67
2022/12/19 07:25:31;;;;;;;66.53;22.80;;;3.90;99.90;;;;;;5090964;28;20036;-67
2022/12/19 07:27:57;;;;;;;57.35;22.42;;;3.80;99.90;;;;;;5017953;28;20047;-68
2022/12/19 07:30:22;;;;;;;60.22;21.75;;;3.90;99.90;;;;;;4938766;28;20044;-67
2022/12/19 07:32:48;;;;;;;67.57;22.33;;;4.00;99.90;;;;;;4896859;28;20140;-67
2022/12/19 07:35:13;;;;;;;59.78;21.70;;;4.00;99.90;;;;;;4865814;29;20039;-67
2022/12/19 07:37:51;;;;;;;64.25;21.38;;;4.10;99.90;;;;;;5206698;27;20131;-66
2022/12/19 07:40:17;;;;;;;55.70;21.08;;;4.10;99.90;;;;;;5135969;27;20476;-68
2022/12/19 07:42:44;;;;;;;59.63;21.33;;;4.20;99.90;;;;;;5077287;28;20051;-67
2022/12/19 07:45:11;;;;;;;57.45;21.77;;;4.20;99.90;;;;;;5107343;27;20051;-67
2022/12/19 07:47:36;;;;;;;62.00;21.50;;;4.20;99.90;;;;;;5050273;28;20095;-66
2022/12/19 07:50:02;;;;;;;60.85;21.50;;;4.20;99.90;;;;;;4975751;28;20162;-67
2022/12/19 07:52:28;;;;;;;51.45;19.80;;;4.20;99.90;;;;;;4917356;28;20059;-67
2022/12/19 07:54:53;;;;;;;55.40;21.20;;;4.20;99.90;;;;;;4880566;29;20056;-67
2022/12/19 07:57:19;;;;;;;57.25;20.05;;;4.30;99.90;;;;;;4862854;29;20076;-67
2022/12/19 07:59:45;;;;;;;54.08;20.25;;;4.40;99.90;;;;;;4817051;29;20103;-67
2022/12/19 08:02:22;;;;;;;52.75;20.27;;;4.30;99.90;;;;;;5188417;27;20128;-67
2022/12/19 08:04:49;;;;;;;56.80;21.48;;;4.40;99.90;;;;;;5126213;27;20047;-67
2022/12/19 08:07:15;;;;;;;57.88;21.95;;;4.50;99.90;;;;;;5114455;27;20047;-67
2022/12/19 08:09:40;;;;;;;55.42;20.60;;;4.50;99.90;;;;;;5127792;27;20046;-67
2022/12/19 08:12:06;;;;;;;60.92;22.52;;;4.50;99.90;;;;;;5028856;28;20139;-67
2022/12/19 08:14:32;;;;;;;62.67;22.30;;;4.60;99.90;;;;;;5019698;28;20046;-66
2022/12/19 08:16:57;;;;;;;62.45;22.00;;;4.60;99.90;;;;;;4960530;28;20486;-66
2022/12/19 08:19:23;;;;;;;49.35;20.55;;;4.60;99.90;;;;;;4917688;29;20139;-66
2022/12/19 08:21:48;;;;;;;53.50;20.38;;;4.60;99.90;;;;;;4921421;28;20506;-67
2022/12/19 08:24:14;;;;;;;63.72;21.35;;;4.60;99.90;;;;;;4922645;29;20043;-67
2022/12/19 08:29:19;;;;;;;55.72;21.42;;;4.80;99.90;;;;;;5192288;27;20639;-66
2022/12/19 08:31:44;;;;;;;61.53;21.75;;;4.80;99.90;;;;;;5141546;27;20043;-66
2022/12/19 08:34:10;;;;;;;64.10;22.60;;;4.70;99.90;;;;;;5140451;27;20050;-67
2022/12/19 08:36:38;;;;;;;60.33;21.63;;;4.80;99.90;;;;;;5118478;27;20421;-66
2022/12/19 08:39:04;;;;;;;57.17;21.80;;;4.90;99.90;;;;;;5078358;28;20036;-66
2022/12/19 08:41:29;;;;;;;64.55;23.40;;;4.90;99.90;;;;;;5032485;28;20056;-66
2022/12/19 08:43:55;;;;;;;55.47;21.27;;;5.00;99.90;;;;;;5007920;28;20070;-67
2022/12/19 08:46:21;;;;;;;66.63;22.92;;;5.00;99.90;;;;;;4991977;28;20050;-67
2022/12/19 08:48:47;;;;;;;58.47;22.58;;;5.00;99.90;;;;;;4902041;28;20558;-67
2022/12/19 08:51:14;;;;;;;59.38;22.40;;;5.00;99.90;;;;;;4864893;29;20521;-67
2022/12/19 08:56:20;;;;;;;62.88;22.92;;;5.00;99.90;;;;;;5183244;27;20697;-67
2022/12/19 08:58:46;;;;;;;62.38;22.45;;;5.20;99.90;;;;;;5135823;27;20390;-67
2022/12/19 09:01:18;;;;;;;60.15;23.13;;;5.20;99.90;;;;;;5141656;27;20043;-67
2022/12/19 09:03:45;;;;;;;70.72;24.38;;;5.30;99.90;;;;;;5115150;27;20053;-67
2022/12/19 09:06:12;;;;;;;66.72;23.90;;;5.30;99.90;;;;;;5129904;27;20349;-67
2022/12/19 09:08:39;;;;;;;59.63;22.70;;;5.50;99.90;;;;;;5084184;28;20116;-67
2022/12/19 09:11:11;;;;;;;60.40;23.23;;;5.50;99.90;;;;;;5043134;28;20038;-67
2022/12/19 09:13:38;;;;;;;58.20;23.25;;;5.50;99.90;;;;;;5021014;28;20402;-67
2022/12/19 09:16:07;;;;;;;67.45;24.20;;;5.60;99.90;;;;;;5040868;28;20099;-67
2022/12/19 09:18:33;;;;;;;61.05;23.88;;;5.60;99.90;;;;;;4917064;28;20045;-67
2022/12/19 09:21:11;;;;;;;64.85;22.92;;;5.60;99.90;;;;;;5174778;27;20136;-67
2022/12/19 09:23:37;;;;;;;60.60;23.48;;;5.70;99.90;;;;;;5135018;27;20045;-68
2022/12/19 09:26:09;;;;;;;67.57;24.65;;;5.80;99.90;;;;;;5116444;27;20043;-66
2022/12/19 09:28:36;;;;;;;56.53;21.85;;;5.80;99.90;;;;;;5122778;27;20050;-67
2022/12/19 09:31:04;;;;;;;62.50;23.02;;;5.80;99.90;;;;;;5075804;28;20129;-67
2022/12/19 09:33:32;;;;;;;67.05;24.17;;;5.90;99.90;;;;;;5031053;28;20077;-67
2022/12/19 09:35:59;;;;;;;69.35;25.35;;;6.00;99.90;;;;;;5041799;28;20049;-71
2022/12/19 09:38:26;;;;;;;66.97;23.90;;;6.00;99.90;;;;;;4874976;29;20496;-72
2022/12/19 09:40:58;;;;;;;66.10;24.05;;;6.00;99.90;;;;;;4799522;29;20050;-70
2022/12/19 09:43:58;;;;;;;61.80;24.05;;;6.00;99.90;;;;;;4749947;29;20492;-72
2022/12/19 09:46:51;;;;;;;68.32;24.40;;;6.20;99.90;;;;;;5197348;27;20128;-71
2022/12/19 09:49:21;;;;;;;65.47;24.67;;;6.20;99.90;;;;;;5112983;27;20133;-72
2022/12/19 09:52:06;;;;;;;59.92;24.02;;;6.30;99.90;;;;;;5127149;27;20108;-71
2022/12/19 09:54:51;;;;;;;59.85;23.15;;;6.30;99.90;;;;;;5118407;27;20082;-74
2022/12/19 09:57:23;;;;;;;63.40;23.52;;;6.40;99.90;;;;;;5069145;28;20138;-72
2022/12/19 10:00:03;;;;;;;60.70;23.17;;;6.30;99.90;;;;;;5043036;28;20049;-70
2022/12/19 10:02:35;;;;;;;65.68;23.70;;;6.40;99.90;;;;;;4941935;28;20044;-70
2022/12/19 10:05:30;;;;;;;61.57;23.23;;;6.40;99.90;;;;;;4907282;28;20463;-72
2022/12/19 10:07:56;;;;;;;65.07;23.38;;;6.50;99.90;;;;;;4682901;30;20047;-71
2022/12/19 10:13:24;;;;;;;56.95;23.23;;;6.50;99.90;;;;;;5179583;27;20149;-70
2022/12/19 10:16:04;;;;;;;60.15;22.17;;;6.60;99.90;;;;;;5122562;27;20075;-73
2022/12/19 10:18:48;;;;;;;67.15;24.65;;;6.60;99.90;;;;;;5108671;27;20043;-72
2022/12/19 10:21:26;;;;;;;58.13;23.08;;;6.60;99.90;;;;;;5095342;28;20040;-70
2022/12/19 10:24:07;;;;;;;60.85;22.45;;;6.70;99.90;;;;;;5054718;28;20498;-68
2022/12/19 10:26:48;;;;;;;56.63;22.45;;;6.70;99.90;;;;;;5036937;28;20136;-70
2022/12/19 10:29:37;;;;;;;60.75;22.17;;;6.80;99.90;;;;;;5001190;28;20049;-69
2022/12/19 10:32:41;;;;;;;58.95;22.63;;;6.70;99.90;;;;;;4908478;29;20048;-67
2022/12/19 10:35:17;;;;;;;60.78;22.00;;;6.70;99.90;;;;;;4807989;29;20564;-69
2022/12/19 10:37:59;;;;;;;54.33;21.73;;;6.80;99.90;;;;;;5180178;27;20141;-72
2022/12/19 10:40:36;;;;;;;52.03;21.02;;;6.90;99.90;;;;;;5109174;27;20062;-73
2022/12/19 10:43:40;;;;;;;54.28;20.73;;;6.90;99.90;;;;;;5143494;27;20535;-70
2022/12/19 10:46:16;;;;;;;55.38;21.45;;;6.90;99.90;;;;;;5112044;27;20046;-71
2022/12/19 10:48:42;;;;;;;49.22;21.65;;;7.00;99.90;;;;;;5063751;28;20131;-72
2022/12/19 10:51:17;;;;;;;49.95;20.60;;;6.90;99.90;;;;;;4983191;28;20137;-73
2022/12/19 10:53:55;;;;;;;44.95;19.73;;;7.00;99.90;;;;;;4898887;29;20305;-72
2022/12/19 10:56:25;;;;;;;47.83;20.42;;;7.00;99.90;;;;;;4803003;29;20086;-71
2022/12/19 10:58:56;;;;;;;47.20;19.58;;;7.10;99.90;;;;;;4658500;30;20053;-68
2022/12/19 11:04:24;;;;;;;45.05;19.48;;;7.00;99.90;;;;;;5179646;27;20137;-70
2022/12/19 11:06:51;;;;;;;50.05;19.45;;;7.10;99.90;;;;;;5114724;27;20064;-71
2022/12/19 11:09:28;;;;;;;48.63;19.15;;;7.20;99.90;;;;;;5154488;27;20050;-73
2022/12/19 11:12:07;;;;;;;48.72;19.25;;;7.10;99.90;;;;;;5125564;27;20054;-72
2022/12/19 11:14:35;;;;;;;42.65;17.98;;;7.20;99.90;;;;;;5073220;28;20041;-71
2022/12/19 11:17:02;;;;;;;45.05;18.60;;;7.20;99.90;;;;;;4989295;28;20058;-71
2022/12/19 11:19:29;;;;;;;42.63;17.52;;;7.20;99.90;;;;;;4905207;29;20523;-70
2022/12/19 11:22:03;;;;;;;43.28;18.52;;;7.20;99.90;;;;;;4847119;29;20049;-73
2022/12/19 11:24:49;;;;;;;42.38;18.00;;;7.10;99.90;;;;;;4756370;29;20055;-74
2022/12/19 11:30:25;;;;;;;46.58;18.92;;;7.30;99.90;;;;;;5176036;27;20141;-74
2022/12/19 11:33:12;;;;;;;46.45;19.05;;;7.30;99.90;;;;;;5108098;28;20035;-73
2022/12/19 11:35:53;;;;;;;46.17;18.50;;;7.20;99.90;;;;;;5078341;28;20036;-70
2022/12/19 11:38:31;;;;;;;42.30;18.45;;;7.20;99.90;;;;;;5011337;28;20229;-72
2022/12/19 11:40:59;;;;;;;47.17;18.55;;;7.30;99.90;;;;;;4971883;28;20078;-73
2022/12/19 11:43:55;;;;;;;44.17;18.48;;;7.30;99.90;;;;;;4881170;29;20492;-70
2022/12/19 11:46:51;;;;;;;50.50;19.90;;;7.30;99.90;;;;;;4775507;29;20489;-73
2022/12/19 11:49:32;;;;;;;40.75;18.60;;;7.30;99.90;;;;;;4648648;30;20200;-70
2022/12/19 11:52:28;;;;;;;44.47;18.73;;;7.30;99.90;;;;;;4553650;31;20514;-72
2022/12/19 11:57:26;;;;;;;45.53;19.63;;;7.40;99.90;;;;;;5176786;27;20141;-72
2022/12/19 11:59:53;;;;;;;44.97;19.23;;;7.50;99.90;;;;;;5137365;27;20480;-74
2022/12/19 12:02:27;;;;;;;47.65;19.48;;;7.50;99.90;;;;;;5111232;27;20076;-73
2022/12/19 12:05:02;;;;;;;43.45;19.25;;;7.60;99.90;;;;;;5123209;27;20047;-72
2022/12/19 12:07:37;;;;;;;43.30;18.98;;;7.60;99.90;;;;;;5059772;28;20518;-72
2022/12/19 12:10:17;;;;;;;45.13;19.55;;;7.50;99.90;;;;;;4999746;28;20049;-73
2022/12/19 12:13:01;;;;;;;41.63;18.45;;;7.60;99.90;;;;;;4925907;28;20079;-73
2022/12/19 12:15:29;;;;;;;45.10;18.85;;;7.60;99.90;;;;;;4828209;29;20064;-74
2022/12/19 12:18:36;;;;;;;41.00;18.50;;;7.70;99.90;;;;;;4682332;30;20599;-71
2022/12/19 12:23:50;;;;;;;39.90;18.10;;;7.60;99.90;;;;;;5196066;27;20133;-71
2022/12/19 12:26:24;;;;;;;42.03;18.42;;;7.70;99.90;;;;;;5151905;27;20383;-73
2022/12/19 12:29:02;;;;;;;39.17;18.73;;;7.70;99.90;;;;;;5118832;27;20043;-71
2022/12/19 12:31:37;;;;;;;44.60;18.50;;;7.70;99.90;;;;;;5075314;28;20137;-70
2022/12/19 12:34:19;;;;;;;44.63;19.23;;;7.70;99.90;;;;;;4989055;28;20098;-73
2022/12/19 12:37:12;;;;;;;39.63;17.80;;;7.70;99.90;;;;;;4957641;28;20093;-71
2022/12/19 12:40:03;;;;;;;41.95;17.55;;;7.70;99.90;;;;;;4863861;29;20107;-71
2022/12/19 12:42:44;;;;;;;42.60;16.98;;;7.80;99.90;;;;;;4869503;29;20060;-70
2022/12/19 12:47:52;;;;;;;39.25;18.10;;;7.80;99.90;;;;;;5206514;27;20478;-69
2022/12/19 12:50:22;;;;;;;42.20;18.55;;;7.70;99.90;;;;;;5167000;27;20046;-69
2022/12/19 12:52:52;;;;;;;42.40;18.10;;;7.80;99.90;;;;;;5127039;27;20039;-68
2022/12/19 12:55:31;;;;;;;47.45;18.25;;;7.70;99.90;;;;;;5104039;27;20117;-70
2022/12/19 12:57:57;;;;;;;42.42;18.23;;;7.70;99.90;;;;;;5026865;28;20054;-69
2022/12/19 13:00:32;;;;;;;39.67;17.55;;;7.70;99.90;;;;;;4946258;28;20044;-69
2022/12/19 13:03:16;;;;;;;44.60;18.08;;;7.70;99.90;;;;;;4835216;29;20065;-69
2022/12/19 13:05:47;;;;;;;40.00;17.77;;;7.70;99.90;;;;;;4721786;30;20139;-69
2022/12/19 13:08:45;;;;;;;38.47;16.67;;;7.80;99.90;;;;;;4696853;30;20626;-68
2022/12/19 13:14:39;;;;;;;41.10;16.92;;;7.70;99.90;;;;;;5174150;27;20133;-70
2022/12/19 13:17:06;;;;;;;34.70;17.42;;;7.90;99.90;;;;;;5095242;27;20051;-69
2022/12/19 13:19:35;;;;;;;43.10;17.25;;;7.90;99.90;;;;;;5126142;27;20039;-69
2022/12/19 13:22:03;;;;;;;38.97;16.98;;;7.90;99.90;;;;;;5114183;27;20393;-67
2022/12/19 13:24:52;;;;;;;38.10;16.70;;;7.90;99.90;;;;;;5037298;28;20092;-67
2022/12/19 13:27:17;;;;;;;40.42;17.45;;;7.90;99.90;;;;;;4928350;28;20448;-69
2022/12/19 13:29:50;;;;;;;37.22;16.38;;;8.00;99.90;;;;;;4885296;29;20096;-68
2022/12/19 13:32:16;;;;;;;38.65;16.80;;;8.00;99.90;;;;;;4811259;29;20137;-69
2022/12/19 13:35:04;;;;;;;40.88;16.38;;;8.00;99.90;;;;;;4649911;30;20037;-69
2022/12/19 13:38:19;;;;;;;38.00;16.85;;;8.00;99.90;;;;;;5161220;27;20137;-67
2022/12/19 13:41:00;;;;;;;34.28;15.77;;;8.00;99.90;;;;;;5073804;28;20041;-68
2022/12/19 13:43:46;;;;;;;38.00;16.05;;;8.10;99.90;;;;;;5078779;28;20488;-69
2022/12/19 13:46:43;;;;;;;41.58;16.58;;;8.10;99.90;;;;;;5102197;27;20046;-71
2022/12/19 13:49:31;;;;;;;34.65;15.38;;;8.00;99.90;;;;;;5014313;28;20088;-69
2022/12/19 13:51:57;;;;;;;39.47;15.75;;;8.10;99.90;;;;;;4877495;29;20069;-70